Time;durP1;ratioP1;P1;durP2;ratioP2;P2;SDS_P1;SDS_P2;PMS_P1;PMS_P2;Temp;Humidity;BMP_temperature;BMP_pressure;BME280_temperature;BME280_humidity;BME280_pressure;Samples;Min_cycle;Max_cycle;Signal;HPM_P1;HPM_P2
2023/09/09 00:02:08;;;;;;;13.40;7.53;;;;;;;19.62;71.04;101723.41;7394505;19;20026;-63
2023/09/09 00:04:36;;;;;;;13.40;8.23;;;;;;;19.65;70.92;101725.81;7392350;19;20025;-64
2023/09/09 00:07:04;;;;;;;15.13;8.23;;;;;;;19.70;71.09;101719.97;7395965;19;20015;-66
2023/09/09 00:09:32;;;;;;;13.13;8.10;;;;;;;19.70;70.83;101714.63;7396476;19;20113;-66
2023/09/09 00:11:59;;;;;;;14.70;8.98;;;;;;;19.65;70.96;101720.44;7396105;19;20023;-64
2023/09/09 00:14:28;;;;;;;12.85;8.45;;;;;;;19.69;70.72;101719.16;7393296;19;20018;-62
2023/09/09 00:16:57;;;;;;;11.43;8.65;;;;;;;19.69;70.40;101723.69;7395903;19;20491;-63
2023/09/09 00:19:25;;;;;;;12.32;7.60;;;;;;;19.59;70.84;101718.31;7395510;19;20018;-63
2023/09/09 00:21:53;;;;;;;10.95;7.63;;;;;;;19.54;71.23;101725.97;7396093;19;20029;-63
2023/09/09 00:24:21;;;;;;;13.02;8.25;;;;;;;19.47;71.00;101714.13;7392811;19;20025;-64
2023/09/09 00:26:48;;;;;;;12.95;8.60;;;;;;;19.43;71.48;101718.09;7395957;19;20512;-64
2023/09/09 00:29:16;;;;;;;10.43;7.80;;;;;;;19.40;71.45;101718.38;7395944;19;20023;-65
2023/09/09 00:31:43;;;;;;;11.43;8.32;;;;;;;19.41;71.52;101718.22;7395865;19;20015;-65
2023/09/09 00:34:11;;;;;;;13.48;8.40;;;;;;;19.39;71.26;101706.78;7392750;19;20018;-65
2023/09/09 00:36:39;;;;;;;12.57;8.57;;;;;;;19.48;71.10;101710.44;7395184;19;20023;-64
2023/09/09 00:39:08;;;;;;;12.77;7.88;;;;;;;19.46;71.12;101710.59;7395073;19;20369;-64
2023/09/09 00:41:35;;;;;;;10.55;8.00;;;;;;;19.47;70.86;101703.38;7393735;19;20010;-64
2023/09/09 00:44:04;;;;;;;12.43;8.15;;;;;;;19.42;71.09;101719.94;7391309;19;20551;-64
2023/09/09 00:46:32;;;;;;;12.65;8.10;;;;;;;19.41;71.29;101714.69;7395064;19;20010;-64
2023/09/09 00:49:03;;;;;;;11.35;8.23;;;;;;;19.40;71.23;101715.69;7394577;19;20082;-65
2023/09/09 00:51:31;;;;;;;12.15;8.55;;;;;;;19.21;71.45;101720.13;7394712;19;20039;-65
2023/09/09 00:53:59;;;;;;;13.05;8.70;;;;;;;18.83;72.88;101720.22;7393210;19;20019;-65
2023/09/09 00:56:27;;;;;;;12.70;8.35;;;;;;;18.93;73.11;101707.63;7394642;19;20379;-64
2023/09/09 00:58:54;;;;;;;11.07;7.93;;;;;;;19.03;72.27;101708.44;7394327;19;20018;-64
2023/09/09 01:01:22;;;;;;;11.20;7.80;;;;;;;19.12;71.74;101706.75;7394292;19;20020;-65
2023/09/09 01:03:52;;;;;;;10.10;7.50;;;;;;;19.08;71.89;101710.69;7395860;19;20030;-64
2023/09/09 01:06:21;;;;;;;11.65;8.80;;;;;;;19.08;71.74;101706.19;7394016;19;20034;-64
2023/09/09 01:08:49;;;;;;;11.48;8.35;;;;;;;19.05;71.97;101703.78;7394251;19;20035;-64
2023/09/09 01:11:16;;;;;;;13.35;8.45;;;;;;;19.12;71.50;101701.38;7394847;19;20365;-65
2023/09/09 01:13:44;;;;;;;14.98;9.05;;;;;;;19.15;71.37;101701.06;7393197;19;20034;-65
2023/09/09 01:16:13;;;;;;;13.80;9.55;;;;;;;19.10;71.56;101698.81;7392615;19;20420;-65
2023/09/09 01:18:41;;;;;;;11.88;8.63;;;;;;;19.04;71.73;101693.16;7394354;19;20372;-65
2023/09/09 01:21:10;;;;;;;12.60;8.75;;;;;;;19.01;72.17;101690.81;7396098;19;20360;-65
2023/09/09 01:23:38;;;;;;;12.38;9.57;;;;;;;18.98;72.00;101694.63;7394683;19;20023;-64
2023/09/09 01:26:07;;;;;;;13.00;8.73;;;;;;;18.84;72.94;101698.59;7397488;19;20070;-65
2023/09/09 01:28:34;;;;;;;11.68;8.88;;;;;;;18.98;72.08;101697.31;7393749;19;20026;-64
2023/09/09 01:31:02;;;;;;;12.88;8.63;;;;;;;18.94;72.36;101698.59;7394142;19;20031;-65
2023/09/09 01:33:30;;;;;;;13.15;8.95;;;;;;;18.89;71.95;101701.72;7392723;19;20022;-64
2023/09/09 01:35:57;;;;;;;13.68;9.07;;;;;;;18.88;72.23;101704.50;7393799;19;20018;-64
2023/09/09 01:38:24;;;;;;;13.02;8.43;;;;;;;18.89;72.32;101699.03;7391254;19;20096;-64
2023/09/09 01:40:52;;;;;;;12.43;8.60;;;;;;;18.92;71.69;101698.72;7393701;19;20027;-64
2023/09/09 01:43:19;;;;;;;11.75;8.60;;;;;;;18.88;72.00;101696.47;7392019;19;20022;-64
2023/09/09 01:45:48;;;;;;;10.52;8.02;;;;;;;18.87;72.26;101692.09;7391363;19;20042;-64
2023/09/09 01:48:16;;;;;;;15.52;8.55;;;;;;;18.93;71.93;101696.91;7393027;19;20018;-64
2023/09/09 01:50:44;;;;;;;16.77;8.60;;;;;;;18.97;71.47;101690.25;7392047;19;20519;-62
2023/09/09 01:53:12;;;;;;;14.68;10.02;;;;;;;18.86;71.80;101693.94;7392126;19;20026;-62
2023/09/09 01:55:39;;;;;;;12.73;8.80;;;;;;;18.74;72.05;101693.25;7393063;19;20022;-62
2023/09/09 01:58:07;;;;;;;12.23;8.30;;;;;;;18.44;72.95;101694.22;7390813;19;20018;-62
2023/09/09 02:00:34;;;;;;;12.35;8.35;;;;;;;18.23;73.55;101694.34;7392631;19;20374;-63
2023/09/09 02:03:02;;;;;;;12.90;9.25;;;;;;;18.13;74.04;101695.34;7390441;19;20043;-62
2023/09/09 02:05:34;;;;;;;12.77;8.18;;;;;;;18.10;74.25;101692.94;7387531;19;20015;-62
2023/09/09 02:08:01;;;;;;;12.48;8.75;;;;;;;18.41;73.40;101690.97;7391205;19;20026;-62
2023/09/09 02:10:29;;;;;;;13.38;9.35;;;;;;;18.59;72.70;101699.16;7390326;19;20515;-62
2023/09/09 02:12:56;;;;;;;11.93;9.10;;;;;;;18.46;73.28;101696.75;7391364;19;20030;-61
2023/09/09 02:15:25;;;;;;;14.57;8.85;;;;;;;18.57;72.81;101698.44;7391992;19;20493;-62
2023/09/09 02:17:52;;;;;;;11.45;8.65;;;;;;;18.55;72.64;101705.81;7390689;19;20480;-62
2023/09/09 02:20:19;;;;;;;12.43;9.35;;;;;;;18.47;72.53;101698.47;7393830;19;20022;-62
2023/09/09 02:22:47;;;;;;;11.48;8.95;;;;;;;18.13;73.79;101687.28;7391585;19;20029;-62
2023/09/09 02:25:14;;;;;;;12.35;8.23;;;;;;;18.26;73.50;101688.69;7390947;19;20015;-62
2023/09/09 02:27:42;;;;;;;11.60;8.43;;;;;;;18.41;73.16;101682.94;7391733;19;20010;-64
2023/09/09 02:30:10;;;;;;;11.48;8.63;;;;;;;18.18;73.70;101687.72;7390747;19;20098;-63
2023/09/09 02:32:38;;;;;;;11.23;7.70;;;;;;;18.10;74.36;101687.56;7390278;19;20018;-62
2023/09/09 02:35:08;;;;;;;11.80;8.45;;;;;;;18.33;73.53;101685.47;7393233;19;20055;-62
2023/09/09 02:37:35;;;;;;;13.27;8.38;;;;;;;18.41;72.78;101682.94;7395318;19;20014;-61
2023/09/09 02:40:06;;;;;;;10.90;7.60;;;;;;;18.44;72.10;101683.50;7391821;19;20031;-62
2023/09/09 02:42:34;;;;;;;12.57;7.85;;;;;;;18.45;72.34;101684.34;7390892;19;20023;-62
2023/09/09 02:45:02;;;;;;;10.18;7.57;;;;;;;18.46;72.15;101678.81;7389739;19;20022;-62
2023/09/09 02:47:30;;;;;;;11.18;8.18;;;;;;;18.46;72.47;101683.34;7392336;19;20039;-62
2023/09/09 02:49:57;;;;;;;14.10;9.48;;;;;;;18.17;73.01;101677.97;7392497;19;20026;-62
2023/09/09 02:52:25;;;;;;;12.43;8.30;;;;;;;18.17;73.42;101678.81;7391378;19;20385;-62
2023/09/09 02:54:52;;;;;;;10.52;7.88;;;;;;;18.26;73.02;101675.28;7389019;19;20018;-63
2023/09/09 02:57:20;;;;;;;13.25;8.43;;;;;;;18.30;72.96;101675.84;7390942;19;20018;-63
2023/09/09 02:59:47;;;;;;;12.82;8.88;;;;;;;18.30;72.75;101678.53;7389899;19;20547;-62
2023/09/09 03:02:15;;;;;;;11.20;8.18;;;;;;;18.33;72.86;101675.59;7390124;19;20011;-63
2023/09/09 03:04:43;;;;;;;10.98;7.63;;;;;;;18.30;72.62;101680.38;7389164;19;20022;-62
2023/09/09 03:07:10;;;;;;;11.05;7.70;;;;;;;18.24;72.94;101677.28;7392924;19;20377;-63
2023/09/09 03:09:37;;;;;;;13.98;9.27;;;;;;;18.19;73.01;101668.78;7394925;19;20077;-62
2023/09/09 03:12:06;;;;;;;16.25;8.80;;;;;;;18.25;72.59;101668.25;7392546;19;20494;-62
2023/09/09 03:14:34;;;;;;;11.88;8.40;;;;;;;18.23;72.63;101675.56;7388325;19;20039;-62
2023/09/09 03:17:01;;;;;;;11.35;8.57;;;;;;;18.19;72.37;101668.78;7388841;19;20010;-62
2023/09/09 03:19:30;;;;;;;12.85;8.38;;;;;;;18.15;72.49;101677.25;7390047;19;20023;-62
2023/09/09 03:21:58;;;;;;;13.40;7.90;;;;;;;18.17;72.20;101676.16;7390770;19;20031;-62
2023/09/09 03:24:25;;;;;;;13.52;9.15;;;;;;;18.15;72.28;101675.44;7387723;19;20078;-62
2023/09/09 03:26:53;;;;;;;12.15;8.30;;;;;;;18.17;72.06;101667.25;7389253;19;20052;-62
2023/09/09 03:29:21;;;;;;;12.63;8.57;;;;;;;18.14;72.39;101672.91;7389931;19;20026;-62
2023/09/09 03:31:48;;;;;;;12.82;8.25;;;;;;;18.17;71.98;101670.78;7390628;19;20340;-62
2023/09/09 03:34:16;;;;;;;12.50;9.00;;;;;;;18.13;72.15;101673.88;7387944;19;20011;-62
2023/09/09 03:36:43;;;;;;;11.75;7.95;;;;;;;18.08;72.46;101674.28;7393830;19;20018;-62
2023/09/09 03:39:11;;;;;;;11.43;7.95;;;;;;;18.05;72.17;101671.03;7390491;19;20659;-62
2023/09/09 03:41:39;;;;;;;11.10;7.97;;;;;;;17.98;72.48;101676.13;7398201;19;20023;-61
2023/09/09 03:44:07;;;;;;;12.98;7.82;;;;;;;18.02;72.22;101675.69;7392581;19;20022;-62
2023/09/09 03:46:34;;;;;;;10.55;7.72;;;;;;;18.02;72.19;101670.34;7397621;19;20014;-62
2023/09/09 03:49:02;;;;;;;10.73;7.50;;;;;;;18.05;72.24;101671.91;7393820;19;20512;-61
2023/09/09 03:51:30;;;;;;;11.88;8.23;;;;;;;18.02;72.05;101669.50;7396953;19;20025;-62
2023/09/09 03:53:57;;;;;;;12.43;8.68;;;;;;;18.00;72.23;101674.97;7394908;19;20018;-62
2023/09/09 03:56:25;;;;;;;12.18;8.52;;;;;;;17.94;72.52;101682.75;7397181;19;20018;-61
2023/09/09 03:58:52;;;;;;;13.23;8.52;;;;;;;17.61;73.49;101684.72;7398422;19;20022;-61
2023/09/09 04:01:20;;;;;;;12.13;8.15;;;;;;;17.53;74.36;101674.69;7396322;19;20018;-62
2023/09/09 04:03:47;;;;;;;11.35;7.60;;;;;;;17.67;73.32;101678.84;7392914;19;20022;-62
2023/09/09 04:06:17;;;;;;;11.52;8.40;;;;;;;17.76;73.33;101677.19;7394653;19;20081;-62
2023/09/09 04:08:45;;;;;;;12.35;7.95;;;;;;;17.83;72.87;101680.19;7396488;19;20077;-62
2023/09/09 04:11:12;;;;;;;10.80;8.02;;;;;;;17.79;73.35;101687.66;7396969;19;20014;-62
2023/09/09 04:13:40;;;;;;;11.68;8.20;;;;;;;17.84;73.06;101671.16;7393976;19;20038;-63
2023/09/09 04:16:09;;;;;;;11.43;8.23;;;;;;;17.87;72.67;101682.44;7397478;19;20362;-62
2023/09/09 04:18:36;;;;;;;10.15;7.60;;;;;;;17.92;72.60;101679.34;7393988;19;20033;-61
2023/09/09 04:21:13;;;;;;;12.02;8.05;;;;;;;17.88;72.60;101675.25;7396109;19;20018;-62
2023/09/09 04:23:40;;;;;;;11.35;7.85;;;;;;;17.87;72.45;101679.75;7395052;19;20023;-62
2023/09/09 04:26:08;;;;;;;11.38;7.40;;;;;;;17.89;72.22;101671.56;7393779;19;20038;-62
2023/09/09 04:28:35;;;;;;;11.10;7.40;;;;;;;17.87;71.74;101670.88;7395848;19;20352;-62
2023/09/09 04:31:03;;;;;;;12.55;7.15;;;;;;;17.65;72.53;101675.44;7396077;19;20491;-62
2023/09/09 04:33:30;;;;;;;11.75;7.72;;;;;;;17.69;72.07;101671.50;7393807;19;20019;-62
2023/09/09 04:35:58;;;;;;;10.00;7.10;;;;;;;17.69;72.38;101663.47;7395388;19;20023;-62
2023/09/09 04:38:25;;;;;;;10.63;7.47;;;;;;;17.70;72.01;101677.69;7395703;19;20117;-62
2023/09/09 04:40:53;;;;;;;11.38;6.90;;;;;;;17.68;72.00;101685.88;7395201;19;20018;-62
2023/09/09 04:43:21;;;;;;;11.77;7.10;;;;;;;17.70;71.98;101678.53;7394285;19;20011;-62
2023/09/09 04:45:48;;;;;;;10.15;7.35;;;;;;;17.68;72.04;101683.22;7393712;19;20476;-62
2023/09/09 04:48:16;;;;;;;10.82;6.78;;;;;;;17.65;72.11;101680.78;7394968;19;20015;-62
2023/09/09 04:50:43;;;;;;;11.48;7.35;;;;;;;17.66;72.03;101685.16;7394532;19;20036;-62
2023/09/09 04:53:10;;;;;;;11.50;7.15;;;;;;;17.70;72.10;101688.41;7393702;19;20512;-62
2023/09/09 04:55:38;;;;;;;10.05;7.18;;;;;;;17.63;72.07;101690.81;7394614;19;20081;-62
2023/09/09 04:58:10;;;;;;;11.40;6.97;;;;;;;17.66;72.03;101685.16;7392678;19;20508;-62
2023/09/09 05:00:38;;;;;;;9.73;7.25;;;;;;;17.65;72.30;101688.00;7394032;19;20014;-62
2023/09/09 05:03:06;;;;;;;10.68;7.30;;;;;;;17.64;72.25;101691.66;7391854;19;20019;-62
2023/09/09 05:05:34;;;;;;;10.95;7.78;;;;;;;17.65;72.36;101688.00;7393510;19;20019;-62
2023/09/09 05:08:02;;;;;;;10.40;7.28;;;;;;;17.62;72.49;101694.47;7393907;19;20088;-62
2023/09/09 05:10:29;;;;;;;10.45;7.03;;;;;;;17.61;72.27;101692.78;7394396;19;20351;-62
2023/09/09 05:12:57;;;;;;;9.95;6.28;;;;;;;17.59;71.97;101691.19;7393011;19;20019;-62
2023/09/09 05:15:25;;;;;;;13.60;7.45;;;;;;;17.62;72.14;101690.94;7395294;19;20014;-62
2023/09/09 05:17:53;;;;;;;12.30;6.78;;;;;;;17.63;72.32;101681.91;7395099;19;20030;-62
2023/09/09 05:20:20;;;;;;;12.15;7.07;;;;;;;17.68;72.38;101691.25;7396152;19;20063;-62
2023/09/09 05:22:48;;;;;;;11.10;6.88;;;;;;;17.76;71.65;101695.94;7395653;19;20039;-62
2023/09/09 05:25:15;;;;;;;11.23;7.38;;;;;;;17.54;71.79;101697.81;7393230;19;20018;-63
2023/09/09 05:27:43;;;;;;;10.82;7.15;;;;;;;17.35;73.25;101707.59;7397753;19;20021;-62
2023/09/09 05:30:11;;;;;;;13.80;8.27;;;;;;;17.39;73.15;101703.66;7393066;19;20047;-62
2023/09/09 05:32:39;;;;;;;10.07;7.10;;;;;;;17.50;73.00;101701.75;7393112;19;20011;-62
2023/09/09 05:35:09;;;;;;;10.13;6.95;;;;;;;17.70;72.60;101702.66;7392735;19;20023;-62
2023/09/09 05:37:37;;;;;;;9.85;6.90;;;;;;;17.42;73.50;101701.56;7393202;19;20018;-62
2023/09/09 05:40:05;;;;;;;11.65;7.07;;;;;;;17.36;73.93;101702.13;7393175;19;20018;-62
2023/09/09 05:42:33;;;;;;;9.95;6.80;;;;;;;17.51;74.04;101700.78;7392793;19;20032;-62
2023/09/09 05:45:03;;;;;;;9.93;6.72;;;;;;;17.69;73.15;101698.28;7392861;19;20496;-63
2023/09/09 05:47:31;;;;;;;11.48;7.00;;;;;;;17.64;73.56;101692.50;7393744;19;20338;-62
2023/09/09 05:49:58;;;;;;;10.73;7.32;;;;;;;17.57;73.79;101699.38;7391792;19;20085;-62
2023/09/09 05:52:26;;;;;;;11.55;7.60;;;;;;;17.57;74.22;101698.53;7393860;19;20014;-62
2023/09/09 05:54:54;;;;;;;9.88;7.55;;;;;;;17.49;74.59;101704.56;7391531;19;20014;-63
2023/09/09 05:57:21;;;;;;;9.55;6.50;;;;;;;17.73;74.09;101701.53;7395612;19;20014;-62
2023/09/09 05:59:49;;;;;;;11.98;7.53;;;;;;;17.86;73.28;101702.19;7395979;19;20073;-62
2023/09/09 06:02:16;;;;;;;11.02;7.43;;;;;;;17.71;74.46;101701.69;7393510;19;20014;-63
2023/09/09 06:04:44;;;;;;;11.27;7.90;;;;;;;17.71;74.59;101700.84;7391524;19;20017;-62
2023/09/09 06:07:11;;;;;;;11.88;7.88;;;;;;;17.77;74.79;101706.53;7393417;19;20031;-61
2023/09/09 06:09:39;;;;;;;11.75;7.63;;;;;;;17.99;74.27;101702.78;7392353;19;20039;-61
2023/09/09 06:12:06;;;;;;;9.95;6.88;;;;;;;18.17;73.30;101705.63;7392713;19;20026;-61
2023/09/09 06:14:34;;;;;;;11.50;8.02;;;;;;;18.15;73.97;101704.91;7390453;19;20022;-61
2023/09/09 06:17:02;;;;;;;11.85;9.18;;;;;;;18.11;74.33;101702.66;7392158;19;20024;-61
2023/09/09 06:19:30;;;;;;;13.65;8.68;;;;;;;18.04;74.83;101705.03;7392444;19;20018;-62
2023/09/09 06:21:57;;;;;;;10.90;7.50;;;;;;;18.10;74.62;101714.38;7390866;19;20029;-62
2023/09/09 06:24:27;;;;;;;11.82;7.85;;;;;;;18.10;74.58;101712.53;7387631;19;20019;-62
2023/09/09 06:26:54;;;;;;;12.32;7.82;;;;;;;18.19;74.80;101718.91;7388127;19;20010;-62
2023/09/09 06:29:23;;;;;;;11.98;7.82;;;;;;;18.27;74.49;101711.84;7390165;19;20492;-63
2023/09/09 06:31:51;;;;;;;11.40;7.72;;;;;;;18.35;74.44;101712.97;7391865;19;20085;-62
2023/09/09 06:34:18;;;;;;;13.00;7.90;;;;;;;18.41;74.17;101715.09;7389245;19;20039;-62
2023/09/09 06:36:46;;;;;;;10.65;7.85;;;;;;;18.45;74.19;101722.72;7391392;19;20022;-62
2023/09/09 06:39:13;;;;;;;10.20;6.97;;;;;;;18.52;74.42;101729.22;7391579;19;20029;-62
2023/09/09 06:41:41;;;;;;;11.32;8.27;;;;;;;18.66;73.87;101724.41;7395403;19;20015;-62
2023/09/09 06:44:08;;;;;;;12.48;8.65;;;;;;;18.68;73.71;101731.34;7389490;19;20035;-62
2023/09/09 06:46:36;;;;;;;11.60;8.73;;;;;;;18.69;73.62;101727.66;7388434;19;20046;-62
2023/09/09 06:49:03;;;;;;;11.57;7.30;;;;;;;18.73;73.84;101725.56;7391344;19;20116;-64
2023/09/09 06:51:31;;;;;;;13.93;9.13;;;;;;;18.79;73.69;101733.06;7391045;19;20014;-64
2023/09/09 06:53:58;;;;;;;11.93;7.80;;;;;;;18.92;73.40;101732.75;7389142;19;20372;-64
2023/09/09 06:56:27;;;;;;;13.30;8.10;;;;;;;19.06;73.28;101726.94;7390399;19;20019;-64
2023/09/09 06:58:54;;;;;;;10.30;7.53;;;;;;;19.12;73.16;101734.44;7389254;19;20022;-64
2023/09/09 07:01:21;;;;;;;15.57;7.90;;;;;;;19.17;73.30;101734.84;7391200;19;20006;-64
2023/09/09 07:03:49;;;;;;;14.70;8.38;;;;;;;19.21;73.33;101727.34;7388833;19;20018;-64
2023/09/09 07:06:16;;;;;;;10.70;7.50;;;;;;;19.30;73.32;101731.81;7387990;19;20015;-64
2023/09/09 07:08:47;;;;;;;11.85;8.50;;;;;;;19.42;72.89;101738.75;7390739;19;20031;-64
2023/09/09 07:11:14;;;;;;;12.13;8.00;;;;;;;19.53;72.78;101735.00;7389003;19;20057;-64
2023/09/09 07:13:42;;;;;;;11.48;8.00;;;;;;;19.64;72.62;101724.09;7389905;19;20010;-64
2023/09/09 07:16:10;;;;;;;11.50;7.80;;;;;;;19.69;72.52;101729.91;7396442;19;20007;-64
2023/09/09 07:18:37;;;;;;;11.32;7.57;;;;;;;19.77;72.73;101731.84;7397511;19;20030;-64
2023/09/09 07:21:05;;;;;;;11.38;7.55;;;;;;;19.87;72.45;101726.38;7397708;19;20025;-64
2023/09/09 07:23:33;;;;;;;12.68;8.57;;;;;;;19.94;72.67;101736.41;7396465;19;20043;-64
2023/09/09 07:26:00;;;;;;;11.52;7.72;;;;;;;20.03;72.23;101726.56;7397378;19;20011;-65
2023/09/09 07:28:31;;;;;;;14.98;10.13;;;;;;;20.14;71.75;101739.81;7396543;19;20087;-65
2023/09/09 07:31:03;;;;;;;13.63;9.05;;;;;;;20.24;71.70;101725.47;7396147;19;20097;-65
2023/09/09 07:33:31;;;;;;;16.00;9.50;;;;;;;20.28;71.13;101729.53;7396131;19;20027;-65
2023/09/09 07:35:58;;;;;;;16.00;9.30;;;;;;;20.36;71.16;101732.31;7397262;19;20367;-65
2023/09/09 07:38:26;;;;;;;13.85;9.30;;;;;;;20.39;71.04;101722.09;7397136;19;20036;-64
2023/09/09 07:41:01;;;;;;;21.85;14.35;;;;;;;20.49;71.02;101735.50;7397551;19;20042;-64
2023/09/09 07:43:29;;;;;;;18.75;12.45;;;;;;;20.52;70.45;101732.50;7395192;19;20027;-64
2023/09/09 07:45:56;;;;;;;16.33;10.93;;;;;;;20.62;70.61;101737.81;7396039;19;20018;-64
2023/09/09 07:48:25;;;;;;;15.43;10.50;;;;;;;20.72;70.00;101741.28;7396620;19;20039;-64
2023/09/09 07:50:54;;;;;;;15.05;10.50;;;;;;;20.80;69.37;101743.19;7397018;19;20050;-64
2023/09/09 07:53:23;;;;;;;12.23;9.60;;;;;;;20.85;69.70;101746.25;7393532;19;20033;-64
2023/09/09 07:55:51;;;;;;;16.08;10.52;;;;;;;20.93;69.29;101736.38;7394887;19;20021;-64
2023/09/09 07:58:19;;;;;;;14.50;10.23;;;;;;;20.98;69.61;101740.44;7396336;19;20035;-64
2023/09/09 08:00:46;;;;;;;15.70;10.20;;;;;;;21.07;69.60;101736.81;7396436;19;20408;-64
2023/09/09 08:03:14;;;;;;;13.18;9.77;;;;;;;21.11;69.77;101747.13;7395342;19;20464;-64
2023/09/09 08:05:42;;;;;;;14.82;9.93;;;;;;;21.13;69.73;101746.94;7396141;19;20022;-64
2023/09/09 08:08:10;;;;;;;15.38;10.85;;;;;;;21.19;69.42;101746.34;7396905;19;20263;-64
2023/09/09 08:10:37;;;;;;;15.27;10.10;;;;;;;21.27;69.41;101750.94;7396314;19;20492;-64
2023/09/09 08:13:05;;;;;;;15.75;10.65;;;;;;;21.31;69.11;101741.53;7394479;19;20093;-64
2023/09/09 08:15:33;;;;;;;15.27;10.60;;;;;;;21.39;69.05;101750.53;7395744;19;20017;-64
2023/09/09 08:18:08;;;;;;;15.23;11.18;;;;;;;21.44;68.71;101739.25;7394410;19;20377;-64
2023/09/09 08:20:35;;;;;;;14.30;10.23;;;;;;;21.51;68.84;101742.16;7394237;19;20014;-64
2023/09/09 08:23:03;;;;;;;16.42;10.57;;;;;;;21.61;68.90;101742.91;7394653;19;20018;-64
2023/09/09 08:25:32;;;;;;;13.63;9.85;;;;;;;21.66;68.81;101746.78;7394336;19;20036;-64
2023/09/09 08:28:03;;;;;;;17.08;10.25;;;;;;;21.68;68.55;101740.41;7395185;19;20356;-64
2023/09/09 08:30:31;;;;;;;16.10;10.48;;;;;;;21.69;68.28;101736.69;7394392;19;20029;-64
2023/09/09 08:32:59;;;;;;;14.43;10.23;;;;;;;21.80;68.60;101739.09;7394140;19;20015;-64
2023/09/09 08:35:26;;;;;;;15.55;10.35;;;;;;;21.86;67.97;101743.84;7393722;19;20038;-64
2023/09/09 08:37:54;;;;;;;13.80;10.23;;;;;;;21.86;68.06;101733.03;7394276;19;20031;-64
2023/09/09 08:40:21;;;;;;;17.35;12.73;;;;;;;21.93;67.97;101739.47;7395001;19;20436;-64
2023/09/09 08:43:04;;;;;;;14.73;11.15;;;;;;;21.96;67.50;101736.47;7393919;19;20015;-64
2023/09/09 08:45:45;;;;;;;12.77;10.00;;;;;;;22.04;67.20;101739.19;7393745;19;20011;-64
2023/09/09 08:48:18;;;;;;;13.57;9.52;;;;;;;22.09;67.43;101739.56;7395582;19;20026;-64
2023/09/09 08:50:50;;;;;;;16.63;10.02;;;;;;;22.12;67.35;101749.16;7394665;19;20077;-64
2023/09/09 08:53:19;;;;;;;13.60;9.88;;;;;;;22.17;67.29;101746.88;7393494;19;20019;-64
2023/09/09 08:55:48;;;;;;;13.85;10.70;;;;;;;22.27;67.13;101741.31;7394652;19;20042;-64
2023/09/09 08:58:16;;;;;;;14.20;9.93;;;;;;;22.27;67.26;101744.84;7394474;19;20022;-64
2023/09/09 09:00:47;;;;;;;15.93;10.30;;;;;;;22.32;67.06;101750.59;7392839;19;20367;-64
2023/09/09 09:03:16;;;;;;;13.38;9.52;;;;;;;22.43;67.55;101741.31;7391092;19;20018;-64
2023/09/09 09:05:44;;;;;;;14.80;10.43;;;;;;;22.46;67.12;101742.84;7394338;19;20018;-64
2023/09/09 09:08:11;;;;;;;15.40;10.85;;;;;;;22.47;66.92;101739.13;7394626;19;20081;-64
2023/09/09 09:10:42;;;;;;;13.90;10.15;;;;;;;22.46;66.64;101732.06;7393143;19;20413;-64
2023/09/09 09:13:10;;;;;;;13.45;10.27;;;;;;;22.55;67.01;101744.53;7392968;19;20357;-64
2023/09/09 09:15:38;;;;;;;14.75;10.70;;;;;;;22.60;66.95;101736.81;7393360;19;20043;-64
2023/09/09 09:18:07;;;;;;;14.27;10.27;;;;;;;22.62;66.33;101746.41;7392409;19;20019;-64
2023/09/09 09:20:36;;;;;;;15.10;9.93;;;;;;;22.67;66.49;101747.78;7393968;19;20022;-64
2023/09/09 09:23:05;;;;;;;15.15;10.55;;;;;;;22.75;66.46;101742.38;7392847;19;20043;-64
2023/09/09 09:25:40;;;;;;;13.98;10.30;;;;;;;22.79;66.22;101754.53;7393760;19;20035;-64
2023/09/09 09:28:08;;;;;;;13.75;9.82;;;;;;;22.76;65.97;101744.06;7390232;19;20472;-64
2023/09/09 09:30:35;;;;;;;12.95;10.00;;;;;;;22.90;66.07;101746.09;7394154;19;20034;-64
2023/09/09 09:33:03;;;;;;;14.43;9.77;;;;;;;22.96;65.83;101736.47;7393427;19;20058;-64
2023/09/09 09:35:32;;;;;;;13.02;9.32;;;;;;;23.01;65.88;101747.59;7393196;19;20098;-64
2023/09/09 09:38:09;;;;;;;13.35;10.38;;;;;;;22.99;65.61;101746.94;7390440;19;20031;-64
2023/09/09 09:40:39;;;;;;;13.60;9.30;;;;;;;23.04;66.13;101749.97;7393486;19;20011;-65
2023/09/09 09:43:20;;;;;;;13.98;9.32;;;;;;;23.20;65.45;101751.81;7392035;19;20022;-64
2023/09/09 09:45:47;;;;;;;14.32;9.57;;;;;;;23.10;65.95;101743.91;7392008;19;20014;-64
2023/09/09 09:48:27;;;;;;;13.57;9.25;;;;;;;23.18;65.67;101738.47;7391716;19;20020;-64
2023/09/09 09:50:55;;;;;;;12.98;8.90;;;;;;;23.23;66.16;101743.38;7391540;19;20026;-64
2023/09/09 09:53:22;;;;;;;12.00;8.68;;;;;;;23.40;65.33;101736.91;7391788;19;20090;-64
2023/09/09 09:55:51;;;;;;;13.05;8.68;;;;;;;23.47;65.38;101740.63;7392802;19;20010;-64
2023/09/09 09:58:22;;;;;;;16.77;9.15;;;;;;;23.48;65.32;101742.28;7392626;19;20022;-64
2023/09/09 10:00:53;;;;;;;13.48;9.13;;;;;;;23.50;65.68;101739.41;7391049;19;20021;-64
2023/09/09 10:03:25;;;;;;;12.98;9.10;;;;;;;23.53;65.09;101739.91;7389562;19;20409;-64
2023/09/09 10:05:54;;;;;;;13.02;8.85;;;;;;;23.53;65.10;101739.91;7392126;19;20110;-64
2023/09/09 10:08:36;;;;;;;12.48;7.70;;;;;;;23.72;64.80;101730.56;7390320;19;20018;-64
2023/09/09 10:11:10;;;;;;;11.73;7.68;;;;;;;23.75;65.56;101732.09;7392751;19;20026;-64
2023/09/09 10:13:49;;;;;;;12.90;8.48;;;;;;;23.70;65.28;101723.66;7390921;19;20524;-63
2023/09/09 10:16:17;;;;;;;12.02;8.05;;;;;;;23.79;65.10;101733.41;7391605;19;20019;-62
2023/09/09 10:18:47;;;;;;;12.95;8.75;;;;;;;23.94;64.63;101728.94;7392280;19;20042;-62
2023/09/09 10:21:16;;;;;;;11.75;8.18;;;;;;;23.97;65.07;101728.59;7392025;19;20010;-62
2023/09/09 10:24:05;;;;;;;11.95;7.68;;;;;;;24.00;65.84;101727.38;7389635;19;20409;-62
2023/09/09 10:26:33;;;;;;;12.75;8.45;;;;;;;24.07;65.42;101722.94;7391134;19;20018;-63
2023/09/09 10:29:02;;;;;;;12.88;7.97;;;;;;;24.08;65.22;101722.78;7392500;19;20018;-63
2023/09/09 10:31:31;;;;;;;13.35;7.35;;;;;;;24.22;64.68;101728.44;7391545;19;20014;-63
2023/09/09 10:34:00;;;;;;;13.65;8.40;;;;;;;24.31;64.46;101724.69;7390473;19;20018;-62
2023/09/09 10:36:35;;;;;;;12.15;7.40;;;;;;;24.36;64.21;101724.13;7392384;19;20014;-62
2023/09/09 10:39:21;;;;;;;11.05;6.60;;;;;;;24.25;64.59;101725.38;7391167;19;20041;-62
2023/09/09 10:41:49;;;;;;;9.65;6.78;;;;;;;24.36;64.87;101713.31;7392473;19;20010;-62
2023/09/09 10:44:16;;;;;;;12.80;7.80;;;;;;;24.45;64.32;101718.50;7389588;19;20019;-62
2023/09/09 10:46:44;;;;;;;11.80;7.88;;;;;;;24.42;64.09;101718.00;7389730;19;20014;-62
2023/09/09 10:49:17;;;;;;;13.00;7.15;;;;;;;24.56;63.33;101722.66;7390852;19;20019;-62
2023/09/09 10:51:49;;;;;;;12.30;7.22;;;;;;;24.59;62.74;101726.88;7391644;19;20026;-62
2023/09/09 10:54:22;;;;;;;10.95;6.75;;;;;;;24.63;63.06;101725.50;7390287;19;20023;-62
2023/09/09 10:56:52;;;;;;;11.88;7.20;;;;;;;24.61;63.33;101722.94;7392026;19;20022;-62
2023/09/09 10:59:32;;;;;;;9.05;7.00;;;;;;;24.70;63.40;101721.03;7390966;19;20023;-62
2023/09/09 11:02:11;;;;;;;11.10;7.57;;;;;;;24.74;63.17;101728.59;7390868;19;20014;-62
2023/09/09 11:04:41;;;;;;;12.25;7.40;;;;;;;24.74;63.05;101722.34;7389729;19;20029;-63
2023/09/09 11:07:13;;;;;;;9.43;6.78;;;;;;;24.89;62.31;101723.22;7388668;19;20389;-62
2023/09/09 11:09:53;;;;;;;10.68;6.93;;;;;;;24.94;63.03;101723.50;7389699;19;20030;-62
2023/09/09 11:12:27;;;;;;;10.68;6.50;;;;;;;24.90;62.74;101726.78;7390123;19;20496;-62
2023/09/09 11:15:10;;;;;;;10.20;6.97;;;;;;;24.97;62.97;101719.59;7386485;19;20488;-62
2023/09/09 11:17:42;;;;;;;14.82;7.80;;;;;;;25.00;62.08;101724.66;7390022;19;20025;-62
2023/09/09 11:20:12;;;;;;;11.23;7.40;;;;;;;25.11;62.25;101723.38;7390076;19;20018;-62
2023/09/09 11:22:43;;;;;;;10.23;6.43;;;;;;;25.15;61.19;101730.13;7390231;19;20015;-62
2023/09/09 11:25:14;;;;;;;11.50;7.20;;;;;;;25.11;61.06;101723.38;7389855;19;20121;-62